Alias — FAB6146 — position and weather

sailwx.info

Track history (hours):
 
Tides and Currents Weather Stations Pressure Air Temp Water Temp Dewpoint Dewpoint Depression Visibility Wind Speed Wind Dir Waves Ship Positions

Alias

Last reported at 2017-Oct-13 20:40 UTC. Time now 2017-Nov-23 16:43 UTC.
Position N 43°24' E 004°59'.
Warning: this ship's position is 40 days out of date.

Length 12 m.

Type: Sailing vessel. MMSI: 227219750.

Date/timePositionNaut miles runAvg speedWind from/ knotsBaromVisibWave heightAir tempDewpointWater temp
2017-Oct-13 20:40N 43°24' E 004°59'0 0.2
2017-Oct-13 20:30N 43°24' E 004°59'7 4.1
2017-Oct-13 18:46N 43°18' E 004°54'2 5.6
2017-Oct-13 18:22N 43°17' E 004°52'4 5.7
2017-Oct-13 17:44N 43°14' E 004°49'5 5.9
2017-Oct-13 16:50N 43°10' E 004°44'3 5.6
2017-Oct-13 16:18N 43°07' E 004°41'3 5.0
2017-Oct-13 15:45N 43°05' E 004°39'2 5.3
2017-Oct-13 15:27N 43°04' E 004°38'  
2017-Oct-09 08:59N 37°59' W 000°38'3 0.1
2017-Oct-08 10:25N 37°58' W 000°41'0 0.0
2017-Oct-08 09:55N 37°58' W 000°41'0 0.0
2017-Oct-08 09:19N 37°58' W 000°41'0 0.1
2017-Oct-08 08:58N 37°58' W 000°41'2 3.3
2017-Oct-08 08:28N 37°57' W 000°41'3 5.1
2017-Oct-08 07:58N 37°54' W 000°40'2 5.3
2017-Oct-08 07:30N 37°52' W 000°39'7 4.7
2017-Oct-08 05:55N 37°46' W 000°34'  
Track history (hours):
 
Tides and Currents Weather Stations Pressure Air Temp Water Temp Dewpoint Dewpoint Depression Visibility Wind Speed Wind Dir Waves Ship Positions

Alias

Last reported at 2017-Oct-13 20:40 UTC. Time now 2017-Nov-23 16:43 UTC.
Position N 43°24' E 004°59'.
Warning: this ship's position is 40 days out of date.

Length 12 m.

Type: Sailing vessel. MMSI: 227219750.

Date/timePositionNaut miles runAvg speedWind from/ knotsBaromVisibWave heightAir tempDewpointWater temp
2017-Oct-13 20:40N 43°24' E 004°59'0 0.2
2017-Oct-13 20:30N 43°24' E 004°59'7 4.1
2017-Oct-13 18:46N 43°18' E 004°54'2 5.6
2017-Oct-13 18:22N 43°17' E 004°52'4 5.7
2017-Oct-13 17:44N 43°14' E 004°49'5 5.9
2017-Oct-13 16:50N 43°10' E 004°44'3 5.6
2017-Oct-13 16:18N 43°07' E 004°41'3 5.0
2017-Oct-13 15:45N 43°05' E 004°39'2 5.3
2017-Oct-13 15:27N 43°04' E 004°38'  
2017-Oct-09 08:59N 37°59' W 000°38'3 0.1
2017-Oct-08 10:25N 37°58' W 000°41'0 0.0
2017-Oct-08 09:55N 37°58' W 000°41'0 0.0
2017-Oct-08 09:19N 37°58' W 000°41'0 0.1
2017-Oct-08 08:58N 37°58' W 000°41'2 3.3
2017-Oct-08 08:28N 37°57' W 000°41'3 5.1
2017-Oct-08 07:58N 37°54' W 000°40'2 5.3
2017-Oct-08 07:30N 37°52' W 000°39'7 4.7
2017-Oct-08 05:55N 37°46' W 000°34'  

Dump ship's entire track history